Greenbrier Valley Airport

Airport
ICAO code: 
KLWB
Summary
ICAO Region: 
NAM
Territory: 
Location: 
Lewisburg, West Virginia,
Coordinates: 
Aerial View: 
37° 51' 22.622" N, 80° 24' 17.093" W
Airport WX: 
Cumulonimbus
Metar
Observation
KLWB 020915Z AUTO 00000KT 10SM OVC030 05/03 A2996 RMK AO2 T00480030
Station
Lewisburg / Greenbrier
Date/Time
2021-12-02 09:15:00
Wind direction
Wind speed
00 kts
Lowest cloud amount
overcast
Temperature
4.8°C
Dew point
3°C
Humidity
88%
Weather condition
n/a

Description

Greenbrier Valley Airport is a public use airport located 6 km north of the central business district of Lewisburg, a city in Greenbrier County, West Virginia.

Climatology

Humid “subtropical” climate (Köppen climate classification Cfa) - characterized by hot, humid summers and cool winters. Significant amounts of precipitation occur in all seasons in most areas. Winter rainfall (and sometimes snowfall) is associated with large storms that the westerlies steer from west to east. Most summer rainfall occurs during thunderstorms.

Runways

Designator Length Width Surface Rops
4/22 2135 46 ASP Yes/Yes
Airport map: 
Aerial View: 

SKYbrary Partners:

Safety knowledge contributed by: